Nearby METAR Reports

 

EGNV - Tees-Side, United Kingdom
Distance from station: W 8mi, 13km
Updated: 23/09/2018 21:50
NOT Current
Clear
Clear
 Wind from W
Wind: W 8 mph , 13 km/h
Temperature: 5°C
Wind Chill: 2°C
Dew Point: 3°C
Humidity: 87%
Barometer: 1028 hPa
Summary: Clear
Visibility: greater than 7 miles , 10 km
2018/09/23 20:50 EGNV 232050Z 26007KT CAVOK 05/03 Q1028
EGXE - Leeming Raf, United Kingdom
Distance from station: SW 21mi, 34km
Updated: 23/09/2018 22:50
Clear
Clear
 Wind from WNW
Wind: WNW 9 mph , 15 km/h
Temperature: 8°C
Wind Chill: 5°C
Dew Point: 4°C
Humidity: 76%
Barometer: 1029 hPa
Clouds: Clear
Visibility: 6 miles , 10 km
2018/09/23 21:50 EGXE 232150Z AUTO 30008KT 9999 NCD 08/04 Q1029
 
EGXZ - Topcliffe Raf, United Kingdom
Distance from station: SSW 24mi, 38km
Updated: 23/09/2018 22:50
Clear
Clear
 Wind from NW
Wind: NW 8 mph , 13 km/h
Temperature: 8°C
Wind Chill: 6°C
Dew Point: 5°C
Humidity: 82%
Barometer: 1029 hPa
Clouds: Clear
Visibility: 6 miles , 10 km
2018/09/23 21:50 EGXZ 232150Z AUTO 32007KT 9999 NCD 08/05 Q1029
EGXD - Dishforth Raf, United Kingdom
Distance from station: SSW 29mi, 46km
Updated: 06/06/2016 10:50
NOT Current
Clear
Clear
 Wind from SSE
Wind: SSE 5 mph , 7 km/h
Temperature: 18°C
Dew Point: 11°C
Humidity: 64%
Barometer: 1023 hPa
Clouds: Clear
Visibility: 6 miles , 10 km
2016/06/06 09:50 EGXD 060950Z AUTO 16004KT 9999 // NCD 18/11 Q1023
 
EGXU - Linton-On-Ouse R, United Kingdom
Distance from station: S 33mi, 53km
Updated: 23/09/2018 22:50
Clear
Clear
 Wind from WNW
Wind: WNW 6 mph , 9 km/h
Temperature: 7°C
Wind Chill: 6°C
Dew Point: 4°C
Humidity: 81%
Barometer: 1029 hPa
Clouds: Clear
Visibility: 6 miles , 10 km
2018/09/23 21:50 EGXU 232150Z AUTO 30005KT 9999 // NCD 07/04 Q1029
EGNT - Newcastle, United Kingdom
Distance from station: NNW 39mi, 63km
Updated: 23/09/2018 23:20
Clear
Clear
 Wind from W
Wind: W 7 mph , 11 km/h
Temperature: 5°C
Wind Chill: 2°C
Dew Point: 3°C
Humidity: 87%
Barometer: 1029 hPa
Summary: Clear
Visibility: greater than 7 miles , 10 km
2018/09/23 22:20 EGNT 232220Z 27006KT CAVOK 05/03 Q1029
 
EGNM - Leeds And Bradfo, United Kingdom
Distance from station: SSW 49mi, 79km
Updated: 23/09/2018 23:20
Clear
Clear
 Wind from WNW
Wind: WNW 9 mph , 15 km/h
Temperature: 7°C
Wind Chill: 4°C
Dew Point: 3°C
Humidity: 76%
Barometer: 1030 hPa
Summary: Clear
Visibility: greater than 7 miles , 10 km
2018/09/23 22:20 EGNM 232220Z 30008KT CAVOK 07/03 Q1030